sensor_id;sensor_type;location;lat;lon;timestamp;P1;durP1;ratioP1;P2;durP2;ratioP2
3637;SDS011;1835;50.068;8.154;2022-11-14T00:01:28;2.97;;;2.67;;
3637;SDS011;1835;50.068;8.154;2022-11-14T00:03:58;11.37;;;3.10;;
3637;SDS011;1835;50.068;8.154;2022-11-14T00:06:26;5.43;;;4.10;;
3637;SDS011;1835;50.068;8.154;2022-11-14T00:08:54;10.27;;;4.00;;
3637;SDS011;1835;50.068;8.154;2022-11-14T00:11:21;10.00;;;3.77;;
3637;SDS011;1835;50.068;8.154;2022-11-14T00:13:50;3.50;;;3.20;;
3637;SDS011;1835;50.068;8.154;2022-11-14T00:16:18;6.10;;;3.33;;
3637;SDS011;1835;50.068;8.154;2022-11-14T00:18:46;8.33;;;3.77;;
3637;SDS011;1835;50.068;8.154;2022-11-14T00:21:15;5.17;;;3.90;;
3637;SDS011;1835;50.068;8.154;2022-11-14T00:23:43;6.60;;;4.30;;
3637;SDS011;1835;50.068;8.154;2022-11-14T00:26:11;9.13;;;4.80;;
3637;SDS011;1835;50.068;8.154;2022-11-14T00:28:39;7.50;;;4.10;;
3637;SDS011;1835;50.068;8.154;2022-11-14T00:31:07;7.00;;;3.90;;
3637;SDS011;1835;50.068;8.154;2022-11-14T00:33:36;6.60;;;4.00;;
3637;SDS011;1835;50.068;8.154;2022-11-14T00:36:04;5.60;;;4.20;;
3637;SDS011;1835;50.068;8.154;2022-11-14T00:38:34;8.90;;;4.43;;
3637;SDS011;1835;50.068;8.154;2022-11-14T00:41:02;8.23;;;4.50;;
3637;SDS011;1835;50.068;8.154;2022-11-14T00:43:30;10.30;;;4.70;;
3637;SDS011;1835;50.068;8.154;2022-11-14T00:45:58;9.20;;;5.40;;
3637;SDS011;1835;50.068;8.154;2022-11-14T00:48:28;6.83;;;4.93;;
3637;SDS011;1835;50.068;8.154;2022-11-14T00:50:57;6.27;;;4.50;;
3637;SDS011;1835;50.068;8.154;2022-11-14T00:53:25;13.90;;;3.90;;
3637;SDS011;1835;50.068;8.154;2022-11-14T00:55:54;11.07;;;4.23;;
3637;SDS011;1835;50.068;8.154;2022-11-14T00:58:22;10.07;;;3.97;;
3637;SDS011;1835;50.068;8.154;2022-11-14T01:00:50;6.67;;;4.43;;
3637;SDS011;1835;50.068;8.154;2022-11-14T01:03:19;5.63;;;3.83;;
3637;SDS011;1835;50.068;8.154;2022-11-14T01:05:47;7.80;;;4.60;;
3637;SDS011;1835;50.068;8.154;2022-11-14T01:08:17;8.70;;;5.57;;
3637;SDS011;1835;50.068;8.154;2022-11-14T01:10:47;7.50;;;4.43;;
3637;SDS011;1835;50.068;8.154;2022-11-14T01:13:18;5.03;;;3.80;;
3637;SDS011;1835;50.068;8.154;2022-11-14T01:15:46;7.47;;;5.03;;
3637;SDS011;1835;50.068;8.154;2022-11-14T01:18:17;6.30;;;4.80;;
3637;SDS011;1835;50.068;8.154;2022-11-14T01:20:47;12.40;;;5.60;;
3637;SDS011;1835;50.068;8.154;2022-11-14T01:23:15;5.37;;;4.87;;
3637;SDS011;1835;50.068;8.154;2022-11-14T01:25:44;8.03;;;5.10;;
3637;SDS011;1835;50.068;8.154;2022-11-14T01:28:12;12.97;;;6.47;;
3637;SDS011;1835;50.068;8.154;2022-11-14T01:30:44;12.73;;;5.00;;
3637;SDS011;1835;50.068;8.154;2022-11-14T01:33:12;12.20;;;5.90;;
3637;SDS011;1835;50.068;8.154;2022-11-14T01:35:40;7.90;;;4.87;;
3637;SDS011;1835;50.068;8.154;2022-11-14T01:38:11;8.03;;;6.13;;
3637;SDS011;1835;50.068;8.154;2022-11-14T01:40:41;9.27;;;5.63;;
3637;SDS011;1835;50.068;8.154;2022-11-14T01:43:26;15.57;;;7.70;;
3637;SDS011;1835;50.068;8.154;2022-11-14T01:46:00;5.50;;;4.93;;
3637;SDS011;1835;50.068;8.154;2022-11-14T01:48:33;11.43;;;7.30;;
3637;SDS011;1835;50.068;8.154;2022-11-14T01:51:12;8.43;;;5.40;;
3637;SDS011;1835;50.068;8.154;2022-11-14T01:53:49;12.40;;;5.80;;
3637;SDS011;1835;50.068;8.154;2022-11-14T01:56:23;9.70;;;6.23;;
3637;SDS011;1835;50.068;8.154;2022-11-14T01:58:59;10.90;;;6.50;;
3637;SDS011;1835;50.068;8.154;2022-11-14T02:01:34;18.53;;;9.40;;
3637;SDS011;1835;50.068;8.154;2022-11-14T02:04:09;19.37;;;11.40;;
3637;SDS011;1835;50.068;8.154;2022-11-14T02:06:41;20.63;;;10.50;;
3637;SDS011;1835;50.068;8.154;2022-11-14T02:09:09;31.97;;;11.63;;
3637;SDS011;1835;50.068;8.154;2022-11-14T02:11:39;16.97;;;10.80;;
3637;SDS011;1835;50.068;8.154;2022-11-14T02:14:10;21.03;;;10.70;;
3637;SDS011;1835;50.068;8.154;2022-11-14T02:16:40;34.10;;;14.87;;
3637;SDS011;1835;50.068;8.154;2022-11-14T02:19:39;66.93;;;15.63;;
3637;SDS011;1835;50.068;8.154;2022-11-14T02:22:10;92.07;;;14.43;;
3637;SDS011;1835;50.068;8.154;2022-11-14T02:24:38;339.47;;;24.60;;
3637;SDS011;1835;50.068;8.154;2022-11-14T02:27:07;112.90;;;15.83;;
3637;SDS011;1835;50.068;8.154;2022-11-14T02:29:36;195.83;;;16.70;;
3637;SDS011;1835;50.068;8.154;2022-11-14T02:32:04;115.80;;;17.00;;
3637;SDS011;1835;50.068;8.154;2022-11-14T02:34:36;501.13;;;25.43;;
3637;SDS011;1835;50.068;8.154;2022-11-14T02:37:04;219.20;;;17.63;;
3637;SDS011;1835;50.068;8.154;2022-11-14T02:39:34;158.60;;;18.40;;
3637;SDS011;1835;50.068;8.154;2022-11-14T02:42:02;934.47;;;46.97;;
3637;SDS011;1835;50.068;8.154;2022-11-14T02:44:30;391.47;;;27.27;;
3637;SDS011;1835;50.068;8.154;2022-11-14T02:46:59;399.30;;;26.70;;
3637;SDS011;1835;50.068;8.154;2022-11-14T02:49:27;651.77;;;41.97;;
3637;SDS011;1835;50.068;8.154;2022-11-14T02:51:55;568.83;;;36.80;;
3637;SDS011;1835;50.068;8.154;2022-11-14T02:54:23;314.77;;;24.60;;
3637;SDS011;1835;50.068;8.154;2022-11-14T02:56:52;342.13;;;23.00;;
3637;SDS011;1835;50.068;8.154;2022-11-14T02:59:20;325.43;;;27.33;;
3637;SDS011;1835;50.068;8.154;2022-11-14T03:01:48;280.37;;;21.93;;
3637;SDS011;1835;50.068;8.154;2022-11-14T03:04:16;618.43;;;38.33;;
3637;SDS011;1835;50.068;8.154;2022-11-14T03:06:44;358.07;;;25.90;;
3637;SDS011;1835;50.068;8.154;2022-11-14T03:09:12;503.17;;;29.53;;
3637;SDS011;1835;50.068;8.154;2022-11-14T03:11:40;170.90;;;17.50;;
3637;SDS011;1835;50.068;8.154;2022-11-14T03:14:09;379.57;;;27.67;;
3637;SDS011;1835;50.068;8.154;2022-11-14T03:16:37;368.37;;;26.60;;
3637;SDS011;1835;50.068;8.154;2022-11-14T03:19:05;456.60;;;27.67;;
3637;SDS011;1835;50.068;8.154;2022-11-14T03:21:33;347.67;;;26.00;;
3637;SDS011;1835;50.068;8.154;2022-11-14T03:24:01;109.90;;;15.30;;
3637;SDS011;1835;50.068;8.154;2022-11-14T03:26:30;246.33;;;20.20;;
3637;SDS011;1835;50.068;8.154;2022-11-14T03:28:58;42.00;;;13.67;;
3637;SDS011;1835;50.068;8.154;2022-11-14T03:31:27;221.97;;;20.10;;
3637;SDS011;1835;50.068;8.154;2022-11-14T03:33:55;258.87;;;18.50;;
3637;SDS011;1835;50.068;8.154;2022-11-14T03:36:23;229.97;;;19.50;;
3637;SDS011;1835;50.068;8.154;2022-11-14T03:38:51;99.07;;;16.33;;
3637;SDS011;1835;50.068;8.154;2022-11-14T03:41:19;115.13;;;17.33;;
3637;SDS011;1835;50.068;8.154;2022-11-14T03:43:47;95.30;;;17.13;;
3637;SDS011;1835;50.068;8.154;2022-11-14T03:46:15;45.17;;;14.80;;
3637;SDS011;1835;50.068;8.154;2022-11-14T03:48:45;43.93;;;15.47;;
3637;SDS011;1835;50.068;8.154;2022-11-14T03:51:13;56.13;;;16.80;;
3637;SDS011;1835;50.068;8.154;2022-11-14T03:53:41;49.60;;;16.93;;
3637;SDS011;1835;50.068;8.154;2022-11-14T03:56:09;81.90;;;18.70;;
3637;SDS011;1835;50.068;8.154;2022-11-14T03:58:37;42.53;;;15.90;;
3637;SDS011;1835;50.068;8.154;2022-11-14T04:01:05;50.10;;;16.73;;
3637;SDS011;1835;50.068;8.154;2022-11-14T04:03:33;56.60;;;16.60;;
3637;SDS011;1835;50.068;8.154;2022-11-14T04:06:03;46.97;;;18.67;;
3637;SDS011;1835;50.068;8.154;2022-11-14T04:08:31;48.80;;;16.13;;
3637;SDS011;1835;50.068;8.154;2022-11-14T04:11:00;46.57;;;17.73;;
3637;SDS011;1835;50.068;8.154;2022-11-14T04:13:28;52.03;;;16.70;;
3637;SDS011;1835;50.068;8.154;2022-11-14T04:15:56;46.83;;;16.03;;
3637;SDS011;1835;50.068;8.154;2022-11-14T04:18:25;48.80;;;16.70;;
3637;SDS011;1835;50.068;8.154;2022-11-14T04:20:54;45.30;;;18.43;;
3637;SDS011;1835;50.068;8.154;2022-11-14T04:23:23;50.07;;;19.03;;
3637;SDS011;1835;50.068;8.154;2022-11-14T04:25:51;42.00;;;17.30;;
3637;SDS011;1835;50.068;8.154;2022-11-14T04:28:19;49.80;;;17.70;;
3637;SDS011;1835;50.068;8.154;2022-11-14T04:30:47;51.60;;;16.30;;
3637;SDS011;1835;50.068;8.154;2022-11-14T04:33:15;48.50;;;16.43;;
3637;SDS011;1835;50.068;8.154;2022-11-14T04:35:43;46.53;;;16.20;;
3637;SDS011;1835;50.068;8.154;2022-11-14T04:38:11;53.23;;;16.97;;
3637;SDS011;1835;50.068;8.154;2022-11-14T04:40:44;47.60;;;17.00;;
3637;SDS011;1835;50.068;8.154;2022-11-14T04:43:15;50.80;;;17.07;;
3637;SDS011;1835;50.068;8.154;2022-11-14T04:45:45;43.63;;;17.40;;
3637;SDS011;1835;50.068;8.154;2022-11-14T04:48:13;40.77;;;16.23;;
3637;SDS011;1835;50.068;8.154;2022-11-14T04:50:43;54.10;;;16.77;;
3637;SDS011;1835;50.068;8.154;2022-11-14T04:53:11;42.67;;;17.87;;
3637;SDS011;1835;50.068;8.154;2022-11-14T04:55:42;38.63;;;15.30;;
3637;SDS011;1835;50.068;8.154;2022-11-14T04:58:11;45.60;;;16.27;;
3637;SDS011;1835;50.068;8.154;2022-11-14T05:00:39;50.20;;;15.80;;
3637;SDS011;1835;50.068;8.154;2022-11-14T05:03:07;41.30;;;16.67;;
3637;SDS011;1835;50.068;8.154;2022-11-14T05:05:35;40.47;;;16.40;;
3637;SDS011;1835;50.068;8.154;2022-11-14T05:08:07;42.47;;;14.23;;
3637;SDS011;1835;50.068;8.154;2022-11-14T05:10:35;41.30;;;15.30;;
3637;SDS011;1835;50.068;8.154;2022-11-14T05:13:04;34.10;;;14.77;;
3637;SDS011;1835;50.068;8.154;2022-11-14T05:15:32;32.17;;;13.90;;
3637;SDS011;1835;50.068;8.154;2022-11-14T05:18:01;27.50;;;13.77;;
3637;SDS011;1835;50.068;8.154;2022-11-14T05:20:29;35.33;;;16.03;;
3637;SDS011;1835;50.068;8.154;2022-11-14T05:22:57;30.13;;;13.23;;
3637;SDS011;1835;50.068;8.154;2022-11-14T05:25:26;27.23;;;12.90;;
3637;SDS011;1835;50.068;8.154;2022-11-14T05:27:54;31.43;;;13.10;;
3637;SDS011;1835;50.068;8.154;2022-11-14T05:30:23;32.73;;;14.80;;
3637;SDS011;1835;50.068;8.154;2022-11-14T05:32:51;26.03;;;12.03;;
3637;SDS011;1835;50.068;8.154;2022-11-14T05:35:19;28.00;;;13.47;;
3637;SDS011;1835;50.068;8.154;2022-11-14T05:37:47;28.60;;;12.10;;
3637;SDS011;1835;50.068;8.154;2022-11-14T05:40:15;33.87;;;13.67;;
3637;SDS011;1835;50.068;8.154;2022-11-14T05:42:44;27.17;;;11.97;;
3637;SDS011;1835;50.068;8.154;2022-11-14T05:45:12;25.10;;;11.50;;
3637;SDS011;1835;50.068;8.154;2022-11-14T05:47:41;23.37;;;11.37;;
3637;SDS011;1835;50.068;8.154;2022-11-14T05:50:09;27.50;;;12.27;;
3637;SDS011;1835;50.068;8.154;2022-11-14T05:52:38;24.17;;;11.73;;
3637;SDS011;1835;50.068;8.154;2022-11-14T05:55:06;25.10;;;12.03;;
3637;SDS011;1835;50.068;8.154;2022-11-14T05:57:35;27.17;;;11.33;;
3637;SDS011;1835;50.068;8.154;2022-11-14T06:00:03;23.70;;;12.70;;
3637;SDS011;1835;50.068;8.154;2022-11-14T06:02:32;23.63;;;11.93;;
3637;SDS011;1835;50.068;8.154;2022-11-14T06:05:02;24.67;;;12.33;;
3637;SDS011;1835;50.068;8.154;2022-11-14T06:07:30;26.07;;;11.67;;
3637;SDS011;1835;50.068;8.154;2022-11-14T06:09:58;24.93;;;12.07;;
3637;SDS011;1835;50.068;8.154;2022-11-14T06:12:26;21.53;;;11.50;;
3637;SDS011;1835;50.068;8.154;2022-11-14T06:14:54;25.37;;;11.67;;
3637;SDS011;1835;50.068;8.154;2022-11-14T06:17:22;25.10;;;12.10;;
3637;SDS011;1835;50.068;8.154;2022-11-14T06:19:50;28.93;;;12.37;;
3637;SDS011;1835;50.068;8.154;2022-11-14T06:22:19;24.53;;;11.33;;
3637;SDS011;1835;50.068;8.154;2022-11-14T06:24:48;26.50;;;11.57;;
3637;SDS011;1835;50.068;8.154;2022-11-14T06:27:16;37.10;;;12.43;;
3637;SDS011;1835;50.068;8.154;2022-11-14T06:29:44;21.60;;;10.93;;
3637;SDS011;1835;50.068;8.154;2022-11-14T06:32:12;21.10;;;11.00;;
3637;SDS011;1835;50.068;8.154;2022-11-14T06:34:40;19.33;;;10.27;;
3637;SDS011;1835;50.068;8.154;2022-11-14T06:37:08;28.60;;;11.87;;
3637;SDS011;1835;50.068;8.154;2022-11-14T06:39:37;22.40;;;10.03;;
3637;SDS011;1835;50.068;8.154;2022-11-14T06:42:05;18.10;;;9.47;;
3637;SDS011;1835;50.068;8.154;2022-11-14T06:44:33;27.77;;;11.90;;
3637;SDS011;1835;50.068;8.154;2022-11-14T06:47:01;16.77;;;9.60;;
3637;SDS011;1835;50.068;8.154;2022-11-14T06:49:29;28.77;;;11.73;;
3637;SDS011;1835;50.068;8.154;2022-11-14T06:52:04;23.60;;;10.67;;
3637;SDS011;1835;50.068;8.154;2022-11-14T06:54:32;20.70;;;11.00;;
3637;SDS011;1835;50.068;8.154;2022-11-14T06:57:01;27.37;;;12.13;;
3637;SDS011;1835;50.068;8.154;2022-11-14T06:59:30;23.37;;;11.63;;
3637;SDS011;1835;50.068;8.154;2022-11-14T07:01:58;20.57;;;10.50;;
3637;SDS011;1835;50.068;8.154;2022-11-14T07:04:26;31.70;;;12.80;;
3637;SDS011;1835;50.068;8.154;2022-11-14T07:06:54;26.63;;;11.43;;
3637;SDS011;1835;50.068;8.154;2022-11-14T07:09:22;25.20;;;11.37;;
3637;SDS011;1835;50.068;8.154;2022-11-14T07:11:50;31.00;;;12.37;;
3637;SDS011;1835;50.068;8.154;2022-11-14T07:14:19;24.87;;;10.70;;
3637;SDS011;1835;50.068;8.154;2022-11-14T07:16:47;24.33;;;12.17;;
3637;SDS011;1835;50.068;8.154;2022-11-14T07:19:15;34.17;;;13.00;;
3637;SDS011;1835;50.068;8.154;2022-11-14T07:21:43;27.50;;;13.10;;
3637;SDS011;1835;50.068;8.154;2022-11-14T07:24:11;24.47;;;11.70;;
3637;SDS011;1835;50.068;8.154;2022-11-14T07:26:39;30.00;;;13.13;;
3637;SDS011;1835;50.068;8.154;2022-11-14T07:29:07;25.93;;;12.30;;
3637;SDS011;1835;50.068;8.154;2022-11-14T07:31:40;29.23;;;12.87;;
3637;SDS011;1835;50.068;8.154;2022-11-14T07:34:08;33.70;;;13.93;;
3637;SDS011;1835;50.068;8.154;2022-11-14T07:36:37;29.57;;;14.40;;
3637;SDS011;1835;50.068;8.154;2022-11-14T07:39:05;38.60;;;12.47;;
3637;SDS011;1835;50.068;8.154;2022-11-14T07:41:33;31.20;;;14.30;;
3637;SDS011;1835;50.068;8.154;2022-11-14T07:44:01;36.20;;;15.10;;
3637;SDS011;1835;50.068;8.154;2022-11-14T07:46:29;34.17;;;14.00;;
3637;SDS011;1835;50.068;8.154;2022-11-14T07:48:59;31.77;;;15.50;;
3637;SDS011;1835;50.068;8.154;2022-11-14T07:51:27;35.70;;;15.30;;
3637;SDS011;1835;50.068;8.154;2022-11-14T07:53:55;36.00;;;15.40;;
3637;SDS011;1835;50.068;8.154;2022-11-14T07:56:23;35.43;;;15.90;;
3637;SDS011;1835;50.068;8.154;2022-11-14T07:58:51;33.87;;;15.20;;
3637;SDS011;1835;50.068;8.154;2022-11-14T08:01:19;29.27;;;13.67;;
3637;SDS011;1835;50.068;8.154;2022-11-14T08:03:47;42.53;;;15.57;;
3637;SDS011;1835;50.068;8.154;2022-11-14T08:06:17;41.00;;;15.00;;
3637;SDS011;1835;50.068;8.154;2022-11-14T08:08:45;32.70;;;14.10;;
3637;SDS011;1835;50.068;8.154;2022-11-14T08:11:13;32.77;;;13.80;;
3637;SDS011;1835;50.068;8.154;2022-11-14T08:14:00;41.57;;;13.90;;
3637;SDS011;1835;50.068;8.154;2022-11-14T08:16:28;29.77;;;12.67;;
3637;SDS011;1835;50.068;8.154;2022-11-14T08:18:56;31.13;;;13.47;;
3637;SDS011;1835;50.068;8.154;2022-11-14T08:21:25;34.00;;;13.87;;
3637;SDS011;1835;50.068;8.154;2022-11-14T08:23:56;34.63;;;13.33;;
3637;SDS011;1835;50.068;8.154;2022-11-14T08:26:24;28.00;;;13.87;;
3637;SDS011;1835;50.068;8.154;2022-11-14T08:28:59;29.47;;;14.17;;
3637;SDS011;1835;50.068;8.154;2022-11-14T08:31:27;32.47;;;14.97;;
3637;SDS011;1835;50.068;8.154;2022-11-14T08:33:56;36.10;;;14.27;;
3637;SDS011;1835;50.068;8.154;2022-11-14T08:36:26;32.83;;;14.00;;
3637;SDS011;1835;50.068;8.154;2022-11-14T08:38:54;24.63;;;12.00;;
3637;SDS011;1835;50.068;8.154;2022-11-14T08:41:27;31.40;;;13.63;;
3637;SDS011;1835;50.068;8.154;2022-11-14T08:43:55;28.30;;;13.63;;
3637;SDS011;1835;50.068;8.154;2022-11-14T08:46:26;33.13;;;13.67;;
3637;SDS011;1835;50.068;8.154;2022-11-14T08:48:54;36.57;;;15.17;;
3637;SDS011;1835;50.068;8.154;2022-11-14T08:51:22;38.33;;;14.43;;
3637;SDS011;1835;50.068;8.154;2022-11-14T08:53:52;33.37;;;13.67;;
3637;SDS011;1835;50.068;8.154;2022-11-14T08:56:20;28.30;;;13.10;;
3637;SDS011;1835;50.068;8.154;2022-11-14T08:58:48;31.13;;;14.63;;
3637;SDS011;1835;50.068;8.154;2022-11-14T09:01:16;32.20;;;15.00;;
3637;SDS011;1835;50.068;8.154;2022-11-14T09:03:44;33.30;;;14.90;;
3637;SDS011;1835;50.068;8.154;2022-11-14T09:06:12;32.90;;;13.93;;
3637;SDS011;1835;50.068;8.154;2022-11-14T09:08:40;38.40;;;14.03;;
3637;SDS011;1835;50.068;8.154;2022-11-14T09:11:10;28.50;;;14.10;;
3637;SDS011;1835;50.068;8.154;2022-11-14T09:13:44;28.97;;;13.40;;
3637;SDS011;1835;50.068;8.154;2022-11-14T09:16:12;36.13;;;15.80;;
3637;SDS011;1835;50.068;8.154;2022-11-14T09:18:40;37.17;;;14.60;;
3637;SDS011;1835;50.068;8.154;2022-11-14T09:21:09;36.47;;;14.43;;
3637;SDS011;1835;50.068;8.154;2022-11-14T09:23:37;41.97;;;13.90;;
3637;SDS011;1835;50.068;8.154;2022-11-14T09:26:05;37.80;;;16.80;;
3637;SDS011;1835;50.068;8.154;2022-11-14T09:28:36;35.50;;;14.27;;
3637;SDS011;1835;50.068;8.154;2022-11-14T09:31:05;37.43;;;14.93;;
3637;SDS011;1835;50.068;8.154;2022-11-14T09:33:39;32.63;;;15.17;;
3637;SDS011;1835;50.068;8.154;2022-11-14T09:36:07;39.33;;;15.37;;
3637;SDS011;1835;50.068;8.154;2022-11-14T09:38:41;32.60;;;14.50;;
3637;SDS011;1835;50.068;8.154;2022-11-14T09:41:20;37.43;;;16.27;;
3637;SDS011;1835;50.068;8.154;2022-11-14T09:44:00;36.63;;;15.53;;
3637;SDS011;1835;50.068;8.154;2022-11-14T09:47:12;31.33;;;14.80;;
3637;SDS011;1835;50.068;8.154;2022-11-14T09:49:46;38.73;;;16.03;;
3637;SDS011;1835;50.068;8.154;2022-11-14T09:52:23;36.27;;;14.53;;
3637;SDS011;1835;50.068;8.154;2022-11-14T09:54:58;32.50;;;13.47;;
3637;SDS011;1835;50.068;8.154;2022-11-14T09:57:31;30.97;;;14.00;;
3637;SDS011;1835;50.068;8.154;2022-11-14T10:00:02;35.70;;;14.17;;
3637;SDS011;1835;50.068;8.154;2022-11-14T10:02:40;31.00;;;13.80;;
3637;SDS011;1835;50.068;8.154;2022-11-14T10:05:34;29.97;;;13.07;;
3637;SDS011;1835;50.068;8.154;2022-11-14T10:08:28;31.73;;;15.80;;
3637;SDS011;1835;50.068;8.154;2022-11-14T10:11:12;41.20;;;16.03;;
3637;SDS011;1835;50.068;8.154;2022-11-14T10:14:11;34.00;;;13.30;;
3637;SDS011;1835;50.068;8.154;2022-11-14T10:17:01;26.00;;;13.77;;
3637;SDS011;1835;50.068;8.154;2022-11-14T10:19:45;27.47;;;13.60;;
3637;SDS011;1835;50.068;8.154;2022-11-14T10:22:24;32.93;;;13.87;;
3637;SDS011;1835;50.068;8.154;2022-11-14T10:25:12;30.70;;;12.60;;
3637;SDS011;1835;50.068;8.154;2022-11-14T10:27:53;43.00;;;14.17;;
3637;SDS011;1835;50.068;8.154;2022-11-14T10:30:41;38.53;;;14.47;;
3637;SDS011;1835;50.068;8.154;2022-11-14T10:33:21;33.67;;;13.70;;
3637;SDS011;1835;50.068;8.154;2022-11-14T10:36:02;38.30;;;14.40;;
3637;SDS011;1835;50.068;8.154;2022-11-14T10:38:40;26.43;;;12.63;;
3637;SDS011;1835;50.068;8.154;2022-11-14T10:41:15;32.13;;;14.60;;
3637;SDS011;1835;50.068;8.154;2022-11-14T10:44:04;34.60;;;13.50;;
3637;SDS011;1835;50.068;8.154;2022-11-14T10:46:39;29.67;;;13.77;;
3637;SDS011;1835;50.068;8.154;2022-11-14T10:49:17;38.43;;;15.07;;
3637;SDS011;1835;50.068;8.154;2022-11-14T10:51:49;29.53;;;12.93;;
3637;SDS011;1835;50.068;8.154;2022-11-14T10:54:20;32.73;;;13.53;;
3637;SDS011;1835;50.068;8.154;2022-11-14T10:56:53;29.03;;;13.40;;
3637;SDS011;1835;50.068;8.154;2022-11-14T10:59:22;30.37;;;13.60;;
3637;SDS011;1835;50.068;8.154;2022-11-14T11:01:53;35.77;;;14.53;;
3637;SDS011;1835;50.068;8.154;2022-11-14T11:04:27;30.60;;;13.10;;
3637;SDS011;1835;50.068;8.154;2022-11-14T11:07:11;30.40;;;13.93;;
3637;SDS011;1835;50.068;8.154;2022-11-14T11:10:05;24.80;;;12.07;;
3637;SDS011;1835;50.068;8.154;2022-11-14T11:13:03;29.20;;;13.60;;
3637;SDS011;1835;50.068;8.154;2022-11-14T11:15:38;23.10;;;11.60;;
3637;SDS011;1835;50.068;8.154;2022-11-14T11:18:22;26.23;;;12.23;;
3637;SDS011;1835;50.068;8.154;2022-11-14T11:21:04;24.70;;;12.43;;
3637;SDS011;1835;50.068;8.154;2022-11-14T11:23:35;27.10;;;11.90;;
3637;SDS011;1835;50.068;8.154;2022-11-14T11:26:19;32.30;;;13.00;;
3637;SDS011;1835;50.068;8.154;2022-11-14T11:29:06;23.20;;;13.10;;
3637;SDS011;1835;50.068;8.154;2022-11-14T11:31:50;24.10;;;11.50;;
3637;SDS011;1835;50.068;8.154;2022-11-14T11:34:21;25.53;;;11.87;;
3637;SDS011;1835;50.068;8.154;2022-11-14T11:36:54;21.53;;;9.67;;
3637;SDS011;1835;50.068;8.154;2022-11-14T11:39:27;23.03;;;11.17;;
3637;SDS011;1835;50.068;8.154;2022-11-14T11:41:59;19.17;;;10.13;;
3637;SDS011;1835;50.068;8.154;2022-11-14T11:44:37;18.13;;;8.83;;
3637;SDS011;1835;50.068;8.154;2022-11-14T11:47:11;19.03;;;10.47;;
3637;SDS011;1835;50.068;8.154;2022-11-14T11:49:43;23.67;;;9.90;;
3637;SDS011;1835;50.068;8.154;2022-11-14T11:52:25;22.07;;;9.90;;
3637;SDS011;1835;50.068;8.154;2022-11-14T11:55:01;22.20;;;10.60;;
3637;SDS011;1835;50.068;8.154;2022-11-14T11:57:41;21.07;;;10.13;;
3637;SDS011;1835;50.068;8.154;2022-11-14T12:00:13;18.97;;;10.13;;
3637;SDS011;1835;50.068;8.154;2022-11-14T12:02:44;20.07;;;10.43;;
3637;SDS011;1835;50.068;8.154;2022-11-14T12:05:16;28.90;;;10.90;;
3637;SDS011;1835;50.068;8.154;2022-11-14T12:07:56;24.70;;;11.10;;
3637;SDS011;1835;50.068;8.154;2022-11-14T12:10:29;18.57;;;10.70;;
3637;SDS011;1835;50.068;8.154;2022-11-14T12:16:21;26.87;;;9.93;;
3637;SDS011;1835;50.068;8.154;2022-11-14T12:19:18;19.20;;;10.30;;
3637;SDS011;1835;50.068;8.154;2022-11-14T12:22:18;24.30;;;10.13;;
3637;SDS011;1835;50.068;8.154;2022-11-14T12:25:24;18.83;;;9.63;;
3637;SDS011;1835;50.068;8.154;2022-11-14T12:28:21;19.73;;;9.87;;
3637;SDS011;1835;50.068;8.154;2022-11-14T12:31:02;17.80;;;9.63;;
3637;SDS011;1835;50.068;8.154;2022-11-14T12:33:33;17.50;;;10.00;;
3637;SDS011;1835;50.068;8.154;2022-11-14T12:36:05;21.33;;;9.73;;
3637;SDS011;1835;50.068;8.154;2022-11-14T12:38:40;22.67;;;10.27;;
3637;SDS011;1835;50.068;8.154;2022-11-14T12:41:13;18.23;;;9.80;;
3637;SDS011;1835;50.068;8.154;2022-11-14T12:43:51;20.67;;;10.80;;
3637;SDS011;1835;50.068;8.154;2022-11-14T12:46:19;20.03;;;10.13;;
3637;SDS011;1835;50.068;8.154;2022-11-14T12:48:47;22.83;;;9.50;;
3637;SDS011;1835;50.068;8.154;2022-11-14T12:57:16;17.70;;;9.30;;
3637;SDS011;1835;50.068;8.154;2022-11-14T13:00:06;20.97;;;10.03;;
3637;SDS011;1835;50.068;8.154;2022-11-14T13:05:46;20.13;;;9.00;;
3637;SDS011;1835;50.068;8.154;2022-11-14T13:11:36;18.40;;;8.73;;
3637;SDS011;1835;50.068;8.154;2022-11-14T13:14:26;17.67;;;9.63;;
3637;SDS011;1835;50.068;8.154;2022-11-14T13:17:23;20.30;;;10.10;;
3637;SDS011;1835;50.068;8.154;2022-11-14T13:20:24;27.67;;;10.47;;
3637;SDS011;1835;50.068;8.154;2022-11-14T13:26:39;17.93;;;8.83;;
3637;SDS011;1835;50.068;8.154;2022-11-14T13:35:48;19.40;;;9.80;;
3637;SDS011;1835;50.068;8.154;2022-11-14T13:41:55;21.67;;;9.83;;
3637;SDS011;1835;50.068;8.154;2022-11-14T13:45:00;22.07;;;10.77;;
3637;SDS011;1835;50.068;8.154;2022-11-14T13:48:04;18.90;;;9.20;;
3637;SDS011;1835;50.068;8.154;2022-11-14T13:50:54;27.03;;;12.17;;
3637;SDS011;1835;50.068;8.154;2022-11-14T13:53:47;21.50;;;11.17;;
3637;SDS011;1835;50.068;8.154;2022-11-14T13:56:19;30.77;;;10.13;;
3637;SDS011;1835;50.068;8.154;2022-11-14T13:59:11;26.00;;;11.20;;
3637;SDS011;1835;50.068;8.154;2022-11-14T14:02:25;44.57;;;18.03;;
3637;SDS011;1835;50.068;8.154;2022-11-14T14:08:46;19.07;;;9.93;;
3637;SDS011;1835;50.068;8.154;2022-11-14T14:11:34;23.57;;;10.63;;
3637;SDS011;1835;50.068;8.154;2022-11-14T14:14:21;30.80;;;10.07;;
3637;SDS011;1835;50.068;8.154;2022-11-14T14:17:09;19.93;;;9.83;;
3637;SDS011;1835;50.068;8.154;2022-11-14T14:19:49;20.20;;;9.20;;
3637;SDS011;1835;50.068;8.154;2022-11-14T14:22:30;18.97;;;8.73;;
3637;SDS011;1835;50.068;8.154;2022-11-14T14:25:08;23.47;;;9.93;;
3637;SDS011;1835;50.068;8.154;2022-11-14T14:27:51;27.63;;;10.10;;
3637;SDS011;1835;50.068;8.154;2022-11-14T14:30:27;18.83;;;9.77;;
3637;SDS011;1835;50.068;8.154;2022-11-14T14:33:03;18.37;;;9.43;;
3637;SDS011;1835;50.068;8.154;2022-11-14T14:35:40;16.47;;;8.90;;
3637;SDS011;1835;50.068;8.154;2022-11-14T14:38:23;14.57;;;8.20;;
3637;SDS011;1835;50.068;8.154;2022-11-14T14:40:54;12.97;;;7.73;;
3637;SDS011;1835;50.068;8.154;2022-11-14T14:43:23;10.53;;;6.33;;
3637;SDS011;1835;50.068;8.154;2022-11-14T14:45:57;19.70;;;8.20;;
3637;SDS011;1835;50.068;8.154;2022-11-14T14:48:27;20.43;;;8.63;;
3637;SDS011;1835;50.068;8.154;2022-11-14T14:51:01;16.23;;;7.20;;
3637;SDS011;1835;50.068;8.154;2022-11-14T14:53:31;18.60;;;8.17;;
3637;SDS011;1835;50.068;8.154;2022-11-14T14:56:02;11.27;;;6.70;;
3637;SDS011;1835;50.068;8.154;2022-11-14T14:58:33;18.13;;;8.13;;
3637;SDS011;1835;50.068;8.154;2022-11-14T15:01:04;16.17;;;7.53;;
3637;SDS011;1835;50.068;8.154;2022-11-14T15:03:38;15.20;;;7.23;;
3637;SDS011;1835;50.068;8.154;2022-11-14T15:06:20;9.30;;;6.70;;
3637;SDS011;1835;50.068;8.154;2022-11-14T15:08:56;13.20;;;7.50;;
3637;SDS011;1835;50.068;8.154;2022-11-14T15:11:26;13.10;;;7.03;;
3637;SDS011;1835;50.068;8.154;2022-11-14T15:13:58;16.10;;;6.80;;
3637;SDS011;1835;50.068;8.154;2022-11-14T15:16:28;9.07;;;6.77;;
3637;SDS011;1835;50.068;8.154;2022-11-14T15:18:56;22.80;;;6.70;;
3637;SDS011;1835;50.068;8.154;2022-11-14T15:21:27;11.30;;;6.70;;
3637;SDS011;1835;50.068;8.154;2022-11-14T15:23:56;9.80;;;5.37;;
3637;SDS011;1835;50.068;8.154;2022-11-14T15:26:27;8.37;;;6.03;;
3637;SDS011;1835;50.068;8.154;2022-11-14T15:29:06;11.60;;;6.83;;
3637;SDS011;1835;50.068;8.154;2022-11-14T15:31:46;9.70;;;5.90;;
3637;SDS011;1835;50.068;8.154;2022-11-14T15:34:22;17.13;;;6.50;;
3637;SDS011;1835;50.068;8.154;2022-11-14T15:37:16;11.90;;;5.60;;
3637;SDS011;1835;50.068;8.154;2022-11-14T15:39:48;12.27;;;6.77;;
3637;SDS011;1835;50.068;8.154;2022-11-14T15:42:17;17.63;;;7.47;;
3637;SDS011;1835;50.068;8.154;2022-11-14T15:44:52;10.33;;;5.90;;
3637;SDS011;1835;50.068;8.154;2022-11-14T15:47:22;11.00;;;6.33;;
3637;SDS011;1835;50.068;8.154;2022-11-14T15:49:55;13.47;;;7.03;;
3637;SDS011;1835;50.068;8.154;2022-11-14T15:52:31;9.27;;;5.97;;
3637;SDS011;1835;50.068;8.154;2022-11-14T15:55:07;12.10;;;6.20;;
3637;SDS011;1835;50.068;8.154;2022-11-14T15:57:40;17.13;;;7.03;;
3637;SDS011;1835;50.068;8.154;2022-11-14T16:00:14;12.63;;;6.77;;